Terminal Aerodrome Forecast
Issued by NWS

Home | Current Version | Previous Version | Text Only | Print | Product List | Glossary On
Versions: 1 2 3 4 5 6 7 8 9 10 11 12 13 14 15 16 17 18 19 20
000
FTUS41 KBTV 292337
TAFSLK
TAF
KSLK 292337Z 3000/3024 00000KT P6SM SCT200
     FM300600 22005KT 5SM BR SCT250
     FM301300 22008KT 5SM SHRA SCT035 BKN120
     FM301700 22009KT P6SM BKN100=

USA.gov is the U.S. government's official web portal to all federal, state and local government web resources and services.